• Join FlightAware (Why Join?)
  • Login
  • US Flag 
06:46AM EDT


 

Airport Tracker/Info


-or-


 

Live Flight TrackerFlight Track Log ✈ N9791F ✈ 14-Sep-2013 ✈ KHUA - KTUP

Flight Track Log - Related Links

Times and Time Zones

All times are in EDT time to prevent confusion due to time zone crossing. See the N9791F flight status page for this flight to view local times or setup timezone preferences in your user account.

Time Position Orientation Groundspeed Altitude Reporting Facility
EDT Latitude Longitude Course Direction KTS MPH feet Rate Location/Type
05:07PM 34.6147 -86.9706 256° West 123 142 6,500  Level Memphis Center
05:08PM 34.6094 -87.0086 260° West 123 142 6,500  Level Memphis Center
05:09PM 34.6003 -87.0494 255° West 123 142 6,500  Level Memphis Center
05:10PM 34.5950 -87.0875 260° West 117 135 6,500  Level Memphis Center
05:11PM 34.5870 -87.1692 257° West  Level Estimated
05:11PM 34.5875 -87.1281 257° West 122 140 6,500  Level Memphis Center
05:12PM 34.5794 -87.2063 256° West  Level FlightAware Approximate
05:12PM 34.5803 -87.1686 258° West 127 146 6,400  Level Memphis Center
05:13PM 34.5731 -87.2069 257° West 122 140 6,500  Climbing Memphis Center
05:14PM 34.5656 -87.2450 257° West 122 140 6,500  Level Memphis Center
05:15PM 34.5561 -87.2856 254° West 122 140 6,600  Climbing Memphis Center
05:16PM 34.5508 -87.3211 260° West 122 140 6,600  Level Memphis Center
05:17PM 34.5433 -87.3617 257° West 122 140 6,600 -60 Level Memphis Center
05:18PM 34.5361 -87.4022 258° West 122 140 6,500 -60 Descending Memphis Center
05:19PM 34.5286 -87.4403 257° West 122 140 6,500  Level Memphis Center
05:20PM 34.5211 -87.4808 257° West 122 140 6,500  Level Memphis Center
05:21PM 34.5158 -87.5189 260° West 122 140 6,500  Level Memphis Center
05:22PM 34.5083 -87.5594 257° West 122 140 6,500 -60 Level Memphis Center
05:23PM 34.4989 -87.6000 254° West 122 140 6,400 -60 Descending Memphis Center
05:24PM 34.4914 -87.6408 257° West 122 140 6,400 -60 Level Memphis Center
05:25PM 34.4839 -87.6789 257° West 122 140 6,300  Descending Memphis Center
05:26PM 34.4764 -87.7167 256° West 122 140 6,400  Climbing Memphis Center
05:27PM 34.4689 -87.7547 257° West 122 140 6,400  Level Memphis Center
05:28PM 34.4611 -87.7903 255° West 122 140 6,400  Level Memphis Center
05:29PM 34.4536 -87.8283 257° West 122 140 6,400  Level Memphis Center
05:30PM 34.4461 -87.8689 257° West 122 140 6,500  Climbing Memphis Center
05:31PM 34.4406 -87.9042 259° West 122 140 6,400 -60 Descending Memphis Center
05:32PM 34.4331 -87.9422 257° West 122 140 6,400  Level Memphis Center
05:33PM 34.4253 -87.9828 257° West 122 140 6,500  Climbing Memphis Center
05:34PM 34.4178 -88.0208 257° West 122 140 6,500 -60 Level Memphis Center
05:35PM 34.4100 -88.0586 256° West 122 140 6,400 -60 Descending Memphis Center
05:36PM 34.4025 -88.0992 257° West 122 140 6,400  Level Memphis Center
05:37PM 34.3950 -88.1397 257° West 122 140 6,500  Climbing Memphis Center
05:38PM 34.3872 -88.1775 256° West 122 140 6,500  Level Memphis Center
05:39PM 34.3794 -88.2156 256° West 122 140 6,500  Level Memphis Center
05:40PM 34.3719 -88.2561 257° West 122 140 6,500  Level Memphis Center
05:41PM 34.3642 -88.2939 256° West 122 140 6,500  Level Memphis Center
05:42PM 34.3564 -88.3344 257° West 122 140 6,500  Level Memphis Center
05:43PM 34.3489 -88.3722 256° West 122 140 6,500  Level Memphis Center
05:44PM 34.3411 -88.4103 256° West 122 140 6,500  Level Memphis Center
05:45PM 34.3333 -88.4506 257° West 122 140 6,500  Level Memphis Center
05:46PM 34.3256 -88.4911 257° West 122 140 6,500  Level Memphis Center
05:47PM 34.3178 -88.5264 255° West 122 140 6,600  Climbing Memphis Center
05:48PM 34.3100 -88.5667 257° West 122 140 6,500 -120 Descending Memphis Center